Lantana, FL

12:15 PM EDT on July 27, 2016 (GMT -0400)
Lanair Park, Lantana | | Change Station

Elev 16 ft 26.59 °N, 80.08 °W | Updated 23 seconds ago

Scattered Clouds
Scattered Clouds
90.4 °F
Feels Like 101 °F
N
6.1
Wind Variable Wind from ESE
Gusts 10.4 mph

Today
High -- | Low -- °F
--% Chance of Precip.
Yesterday
High -- | Low -- °F
Precip. -- in
Pressure 30.11 in
Visibility 10.0 miles
Clouds Few 2500 ft
Scattered Clouds 16000 ft
Heat Index 101 °F
Dew Point 75 °F
Humidity 60%
Rainfall 0.00 in
Snow Depth Not available.
6:43 AM 8:10 PM
Last Quarter, 42% visible
METAR KPBI 271553Z 13009KT 10SM FEW025 SCT160 33/24 A3011 RMK AO2 SLP194 T03280239
Pressure 30.11 in
Visibility 10.0 miles
Clouds Few 2500 ft
Scattered Clouds 16000 ft
Heat Index 101 °F
Dew Point 75 °F
Humidity 60%
Rainfall 0.00 in
Snow Depth Not available.
6:43 AM 8:10 PM
Last Quarter, 42% visible
METAR KPBI 271553Z 13009KT 10SM FEW025 SCT160 33/24 A3011 RMK AO2 SLP194 T03280239

10-Day Weather Forecast

Almanac

Astronomy

Jul. 27, 2016 Rise Set
Actual Time
Civil Twilight
Nautical Twilight
Astronomical Twilight
Moon
Length of Visible Light
Length of Day
Tomorrow will be .
, % of the Moon is Illuminated

Today's Extremes

State Highs State Lows

Community

WunderPhotos

Upload Photos

1,927,877 photos uploaded!

WunderBlog® & News

Nearby

Air Quality

  Air Quality AQ Index Pollutant
Not available.

Snow Depth

Station Depth Elevation

Earthquake Activity

City Distance Mag. Time & Date
Minimum magnitude displayed is 2.5.

Coastal Water Temperatures

Place Temperature

Stations

Nearby Weather Stations

Station Location Temp. Windchill Dew Point Humidity Wind Precip. Elev Updated Type
                   

Watches & Warnings

There are currently no watches in effect.